sensor_id;sensor_type;location;lat;lon;timestamp;pressure;altitude;pressure_sealevel;temperature;humidity
80482;BME280;69797;43.864;21.410;2024-03-02T00:00:53;99498.22;;;8.95;81.45
80482;BME280;69797;43.864;21.410;2024-03-02T00:03:20;99457.78;;;8.85;81.72
80482;BME280;69797;43.864;21.410;2024-03-02T00:05:50;99466.38;;;8.88;82.36
80482;BME280;69797;43.864;21.410;2024-03-02T00:08:24;99453.44;;;8.77;82.30
80482;BME280;69797;43.864;21.410;2024-03-02T00:10:57;99446.66;;;8.68;82.61
80482;BME280;69797;43.864;21.410;2024-03-02T00:13:26;99476.75;;;8.80;82.88
80482;BME280;69797;43.864;21.410;2024-03-02T00:15:54;99478.72;;;8.73;82.79
80482;BME280;69797;43.864;21.410;2024-03-02T00:18:32;99472.81;;;8.76;83.30
80482;BME280;69797;43.864;21.410;2024-03-02T00:21:00;99473.06;;;8.74;83.50
80482;BME280;69797;43.864;21.410;2024-03-02T00:23:29;99484.88;;;8.86;82.58
80482;BME280;69797;43.864;21.410;2024-03-02T00:25:58;99464.38;;;8.77;82.55
80482;BME280;69797;43.864;21.410;2024-03-02T00:28:29;99464.53;;;8.82;82.44
80482;BME280;69797;43.864;21.410;2024-03-02T00:33:28;99450.34;;;8.92;81.64
80482;BME280;69797;43.864;21.410;2024-03-02T00:35:56;99478.03;;;9.14;81.60
80482;BME280;69797;43.864;21.410;2024-03-02T00:38:24;99475.78;;;9.23;81.73
80482;BME280;69797;43.864;21.410;2024-03-02T00:40:51;99486.41;;;9.31;81.28
80482;BME280;69797;43.864;21.410;2024-03-02T00:45:50;99469.31;;;9.35;80.87
80482;BME280;69797;43.864;21.410;2024-03-02T00:48:17;99436.94;;;9.21;80.08
80482;BME280;69797;43.864;21.410;2024-03-02T00:50:44;99462.69;;;9.43;80.48
80482;BME280;69797;43.864;21.410;2024-03-02T00:53:11;99464.16;;;9.57;80.86
80482;BME280;69797;43.864;21.410;2024-03-02T00:55:39;99460.72;;;9.62;80.83
80482;BME280;69797;43.864;21.410;2024-03-02T00:58:10;99477.88;;;9.81;81.10
80482;BME280;69797;43.864;21.410;2024-03-02T01:00:37;99460.44;;;9.82;80.68
80482;BME280;69797;43.864;21.410;2024-03-02T01:03:04;99479.84;;;10.04;80.15
80482;BME280;69797;43.864;21.410;2024-03-02T01:05:31;99480.94;;;10.15;80.27
80482;BME280;69797;43.864;21.410;2024-03-02T01:07:57;99448.22;;;10.08;79.93
80482;BME280;69797;43.864;21.410;2024-03-02T01:10:24;99465.63;;;10.25;79.55
80482;BME280;69797;43.864;21.410;2024-03-02T01:12:52;99480.38;;;10.48;79.08
80482;BME280;69797;43.864;21.410;2024-03-02T01:15:19;99459.19;;;10.43;78.67
80482;BME280;69797;43.864;21.410;2024-03-02T01:17:46;99471.94;;;10.61;78.28
80482;BME280;69797;43.864;21.410;2024-03-02T01:20:13;99468.84;;;10.57;78.20
80482;BME280;69797;43.864;21.410;2024-03-02T01:22:40;99469.53;;;10.65;78.40
80482;BME280;69797;43.864;21.410;2024-03-02T01:25:08;99460.50;;;10.64;78.45
80482;BME280;69797;43.864;21.410;2024-03-02T01:27:35;99446.22;;;10.50;78.48
80482;BME280;69797;43.864;21.410;2024-03-02T01:30:02;99463.00;;;10.54;78.59
80482;BME280;69797;43.864;21.410;2024-03-02T01:32:28;99465.84;;;10.59;78.71
80482;BME280;69797;43.864;21.410;2024-03-02T01:34:56;99464.19;;;10.58;78.34
80482;BME280;69797;43.864;21.410;2024-03-02T01:37:22;99439.31;;;10.48;78.44
80482;BME280;69797;43.864;21.410;2024-03-02T01:39:49;99449.19;;;10.61;78.52
80482;BME280;69797;43.864;21.410;2024-03-02T01:42:16;99407.28;;;10.37;78.17
80482;BME280;69797;43.864;21.410;2024-03-02T01:44:43;99431.78;;;10.55;78.71
80482;BME280;69797;43.864;21.410;2024-03-02T01:47:10;99464.13;;;10.81;77.97
80482;BME280;69797;43.864;21.410;2024-03-02T01:49:37;99452.97;;;10.71;78.12
80482;BME280;69797;43.864;21.410;2024-03-02T01:52:05;99448.56;;;10.70;78.10
80482;BME280;69797;43.864;21.410;2024-03-02T01:54:32;99445.25;;;10.68;78.76
80482;BME280;69797;43.864;21.410;2024-03-02T01:56:59;99454.03;;;10.70;78.40
80482;BME280;69797;43.864;21.410;2024-03-02T01:59:26;99470.13;;;10.78;78.33
80482;BME280;69797;43.864;21.410;2024-03-02T02:01:53;99477.00;;;10.81;78.95
80482;BME280;69797;43.864;21.410;2024-03-02T02:04:20;99464.88;;;10.77;78.31
80482;BME280;69797;43.864;21.410;2024-03-02T02:06:54;99464.41;;;10.68;78.54
80482;BME280;69797;43.864;21.410;2024-03-02T02:09:20;99474.50;;;10.79;78.04
80482;BME280;69797;43.864;21.410;2024-03-02T02:11:47;99470.47;;;10.70;78.12
80482;BME280;69797;43.864;21.410;2024-03-02T02:14:14;99470.72;;;10.69;78.32
80482;BME280;69797;43.864;21.410;2024-03-02T02:16:41;99470.94;;;10.67;78.50
80482;BME280;69797;43.864;21.410;2024-03-02T02:19:08;99459.88;;;10.62;79.00
80482;BME280;69797;43.864;21.410;2024-03-02T02:21:35;99464.41;;;10.68;78.53
80482;BME280;69797;43.864;21.410;2024-03-02T02:24:02;99464.75;;;10.72;78.48
80482;BME280;69797;43.864;21.410;2024-03-02T02:26:30;99460.94;;;10.73;78.51
80482;BME280;69797;43.864;21.410;2024-03-02T02:28:57;99480.00;;;10.79;78.85
80482;BME280;69797;43.864;21.410;2024-03-02T02:31:23;99476.44;;;10.79;78.59
80482;BME280;69797;43.864;21.410;2024-03-02T02:33:50;99463.94;;;10.71;78.80
80482;BME280;69797;43.864;21.410;2024-03-02T02:36:17;99461.41;;;10.70;79.78
80482;BME280;69797;43.864;21.410;2024-03-02T02:38:46;99462.25;;;10.70;79.88
80482;BME280;69797;43.864;21.410;2024-03-02T02:41:15;99470.59;;;10.75;79.29
80482;BME280;69797;43.864;21.410;2024-03-02T02:43:41;99452.38;;;10.69;79.38
80482;BME280;69797;43.864;21.410;2024-03-02T02:46:08;99440.09;;;10.60;78.94
80482;BME280;69797;43.864;21.410;2024-03-02T02:48:35;99443.72;;;10.61;78.53
80482;BME280;69797;43.864;21.410;2024-03-02T02:51:02;99465.69;;;10.77;79.69
80482;BME280;69797;43.864;21.410;2024-03-02T02:53:29;99473.91;;;10.77;78.90
80482;BME280;69797;43.864;21.410;2024-03-02T02:55:56;99467.72;;;10.70;79.32
80482;BME280;69797;43.864;21.410;2024-03-02T02:58:23;99468.91;;;10.74;78.83
80482;BME280;69797;43.864;21.410;2024-03-02T03:00:50;99454.84;;;10.71;78.55
80482;BME280;69797;43.864;21.410;2024-03-02T03:03:16;99471.28;;;10.83;79.09
80482;BME280;69797;43.864;21.410;2024-03-02T03:05:43;99463.31;;;10.81;78.96
80482;BME280;69797;43.864;21.410;2024-03-02T03:08:10;99456.63;;;10.77;78.81
80482;BME280;69797;43.864;21.410;2024-03-02T03:10:36;99448.44;;;10.77;78.39
80482;BME280;69797;43.864;21.410;2024-03-02T03:13:03;99425.47;;;10.66;78.48
80482;BME280;69797;43.864;21.410;2024-03-02T03:15:30;99433.91;;;10.76;78.46
80482;BME280;69797;43.864;21.410;2024-03-02T03:17:57;99459.69;;;10.92;78.24
80482;BME280;69797;43.864;21.410;2024-03-02T03:20:24;99455.44;;;10.85;78.55
80482;BME280;69797;43.864;21.410;2024-03-02T03:22:51;99465.34;;;10.86;78.53
80482;BME280;69797;43.864;21.410;2024-03-02T03:25:18;99448.19;;;10.78;78.66
80482;BME280;69797;43.864;21.410;2024-03-02T03:27:44;99464.25;;;10.87;78.56
80482;BME280;69797;43.864;21.410;2024-03-02T03:30:12;99445.59;;;10.72;78.66
80482;BME280;69797;43.864;21.410;2024-03-02T03:32:39;99462.94;;;10.77;79.17
80482;BME280;69797;43.864;21.410;2024-03-02T03:35:07;99448.09;;;10.62;79.59
80482;BME280;69797;43.864;21.410;2024-03-02T03:37:34;99477.03;;;10.69;79.74
80482;BME280;69797;43.864;21.410;2024-03-02T03:40:02;99465.25;;;10.57;79.26
80482;BME280;69797;43.864;21.410;2024-03-02T03:42:29;99468.47;;;10.54;80.19
80482;BME280;69797;43.864;21.410;2024-03-02T03:44:56;99472.63;;;10.56;79.78
80482;BME280;69797;43.864;21.410;2024-03-02T03:47:23;99472.63;;;10.56;79.72
80482;BME280;69797;43.864;21.410;2024-03-02T03:49:49;99460.03;;;10.44;79.85
80482;BME280;69797;43.864;21.410;2024-03-02T03:52:16;99466.13;;;10.46;79.95
80482;BME280;69797;43.864;21.410;2024-03-02T03:54:43;99469.78;;;10.51;79.88
80482;BME280;69797;43.864;21.410;2024-03-02T03:57:11;99462.28;;;10.47;79.62
80482;BME280;69797;43.864;21.410;2024-03-02T03:59:38;99446.59;;;10.42;79.36
80482;BME280;69797;43.864;21.410;2024-03-02T04:02:04;99462.28;;;10.47;79.53
80482;BME280;69797;43.864;21.410;2024-03-02T04:04:31;99456.31;;;10.38;79.41
80482;BME280;69797;43.864;21.410;2024-03-02T04:06:58;99446.44;;;10.37;79.05
80482;BME280;69797;43.864;21.410;2024-03-02T04:09:25;99474.53;;;10.56;78.99
80482;BME280;69797;43.864;21.410;2024-03-02T04:11:52;99464.91;;;10.53;78.43
80482;BME280;69797;43.864;21.410;2024-03-02T04:14:19;99465.97;;;10.52;78.96
80482;BME280;69797;43.864;21.410;2024-03-02T04:16:46;99436.69;;;10.29;79.02
80482;BME280;69797;43.864;21.410;2024-03-02T04:19:12;99450.84;;;10.38;79.00
80482;BME280;69797;43.864;21.410;2024-03-02T04:21:39;99467.28;;;10.50;79.28
80482;BME280;69797;43.864;21.410;2024-03-02T04:24:06;99449.44;;;10.36;78.75
80482;BME280;69797;43.864;21.410;2024-03-02T04:26:33;99455.63;;;10.43;78.49
80482;BME280;69797;43.864;21.410;2024-03-02T04:28:59;99459.78;;;10.45;78.67
80482;BME280;69797;43.864;21.410;2024-03-02T04:31:26;99470.59;;;10.52;78.92
80482;BME280;69797;43.864;21.410;2024-03-02T04:33:53;99442.06;;;10.36;78.43
80482;BME280;69797;43.864;21.410;2024-03-02T04:36:20;99457.53;;;10.42;78.25
80482;BME280;69797;43.864;21.410;2024-03-02T04:38:48;99452.19;;;10.36;79.33
80482;BME280;69797;43.864;21.410;2024-03-02T04:41:15;99487.03;;;10.52;79.46
80482;BME280;69797;43.864;21.410;2024-03-02T04:43:42;99467.88;;;10.40;79.06
80482;BME280;69797;43.864;21.410;2024-03-02T04:46:08;99459.06;;;10.26;79.24
80482;BME280;69797;43.864;21.410;2024-03-02T04:48:35;99486.69;;;10.37;79.48
80482;BME280;69797;43.864;21.410;2024-03-02T04:51:02;99493.25;;;10.36;79.50
80482;BME280;69797;43.864;21.410;2024-03-02T04:53:29;99478.47;;;10.37;79.26
80482;BME280;69797;43.864;21.410;2024-03-02T04:55:56;99485.75;;;10.43;79.38
80482;BME280;69797;43.864;21.410;2024-03-02T04:58:25;99485.38;;;10.39;79.55
80482;BME280;69797;43.864;21.410;2024-03-02T05:00:52;99483.34;;;10.35;78.82
80482;BME280;69797;43.864;21.410;2024-03-02T05:03:19;99472.28;;;10.29;79.02
80482;BME280;69797;43.864;21.410;2024-03-02T05:05:45;99485.50;;;10.32;78.29
80482;BME280;69797;43.864;21.410;2024-03-02T05:08:13;99499.56;;;10.36;79.08
80482;BME280;69797;43.864;21.410;2024-03-02T05:10:39;99496.69;;;10.31;78.74
80482;BME280;69797;43.864;21.410;2024-03-02T05:13:06;99504.91;;;10.43;78.43
80482;BME280;69797;43.864;21.410;2024-03-02T05:15:33;99504.66;;;10.44;77.67
80482;BME280;69797;43.864;21.410;2024-03-02T05:18:00;99496.69;;;10.43;77.70
80482;BME280;69797;43.864;21.410;2024-03-02T05:20:29;99496.47;;;10.32;76.53
80482;BME280;69797;43.864;21.410;2024-03-02T05:22:56;99494.19;;;10.41;77.57
80482;BME280;69797;43.864;21.410;2024-03-02T05:25:22;99514.31;;;10.47;78.29
80482;BME280;69797;43.864;21.410;2024-03-02T05:27:49;99503.22;;;10.42;77.65
80482;BME280;69797;43.864;21.410;2024-03-02T05:30:16;99511.81;;;10.57;77.28
80482;BME280;69797;43.864;21.410;2024-03-02T05:32:43;99506.81;;;10.54;76.92
80482;BME280;69797;43.864;21.410;2024-03-02T05:35:10;99489.66;;;10.47;77.58
80482;BME280;69797;43.864;21.410;2024-03-02T05:37:39;99516.94;;;10.65;78.25
80482;BME280;69797;43.864;21.410;2024-03-02T05:40:06;99490.84;;;10.51;77.15
80482;BME280;69797;43.864;21.410;2024-03-02T05:42:33;99528.25;;;10.57;73.69
80482;BME280;69797;43.864;21.410;2024-03-02T05:45:00;99528.13;;;10.52;74.24
80482;BME280;69797;43.864;21.410;2024-03-02T05:47:27;99525.38;;;10.40;74.24
80482;BME280;69797;43.864;21.410;2024-03-02T05:49:54;99498.75;;;10.05;74.81
80482;BME280;69797;43.864;21.410;2024-03-02T05:52:21;99523.66;;;10.16;75.72
80482;BME280;69797;43.864;21.410;2024-03-02T05:54:48;99528.66;;;10.19;75.68
80482;BME280;69797;43.864;21.410;2024-03-02T05:57:16;99504.47;;;10.04;76.11
80482;BME280;69797;43.864;21.410;2024-03-02T05:59:44;99531.75;;;10.22;76.76
80482;BME280;69797;43.864;21.410;2024-03-02T06:02:11;99533.19;;;10.25;76.52
80482;BME280;69797;43.864;21.410;2024-03-02T06:04:37;99544.28;;;10.42;75.37
80482;BME280;69797;43.864;21.410;2024-03-02T06:07:04;99532.41;;;10.36;75.66
80482;BME280;69797;43.864;21.410;2024-03-02T06:09:32;99525.84;;;10.37;75.82
80482;BME280;69797;43.864;21.410;2024-03-02T06:11:58;99524.31;;;10.53;75.66
80482;BME280;69797;43.864;21.410;2024-03-02T06:14:25;99541.94;;;10.80;75.42
80482;BME280;69797;43.864;21.410;2024-03-02T06:16:52;99541.44;;;10.95;74.92
80482;BME280;69797;43.864;21.410;2024-03-02T06:19:19;99545.84;;;11.08;74.45
80482;BME280;69797;43.864;21.410;2024-03-02T06:21:46;99547.81;;;11.24;73.92
80482;BME280;69797;43.864;21.410;2024-03-02T06:24:12;99538.28;;;11.27;73.39
80482;BME280;69797;43.864;21.410;2024-03-02T06:26:39;99540.28;;;11.32;71.99
80482;BME280;69797;43.864;21.410;2024-03-02T06:29:06;99548.91;;;11.23;71.69
80482;BME280;69797;43.864;21.410;2024-03-02T06:31:34;99541.53;;;11.12;72.85
80482;BME280;69797;43.864;21.410;2024-03-02T06:34:01;99526.28;;;11.04;72.55
80482;BME280;69797;43.864;21.410;2024-03-02T06:36:30;99550.06;;;11.27;73.10
80482;BME280;69797;43.864;21.410;2024-03-02T06:38:57;99552.81;;;11.39;72.29
80482;BME280;69797;43.864;21.410;2024-03-02T06:41:24;99541.56;;;11.41;71.94
80482;BME280;69797;43.864;21.410;2024-03-02T06:43:51;99556.94;;;11.53;71.94
80482;BME280;69797;43.864;21.410;2024-03-02T06:46:26;99558.03;;;11.41;71.63
80482;BME280;69797;43.864;21.410;2024-03-02T06:48:53;99546.75;;;11.25;71.65
80482;BME280;69797;43.864;21.410;2024-03-02T06:51:19;99532.47;;;11.12;71.51
80482;BME280;69797;43.864;21.410;2024-03-02T06:53:46;99561.09;;;11.04;70.32
80482;BME280;69797;43.864;21.410;2024-03-02T06:56:13;99573.97;;;10.68;70.36
80482;BME280;69797;43.864;21.410;2024-03-02T06:58:40;99565.16;;;10.13;71.16
80482;BME280;69797;43.864;21.410;2024-03-02T07:01:07;99579.38;;;9.91;72.50
80482;BME280;69797;43.864;21.410;2024-03-02T07:03:33;99566.31;;;9.63;74.25
80482;BME280;69797;43.864;21.410;2024-03-02T07:06:00;99610.16;;;9.56;74.50
80482;BME280;69797;43.864;21.410;2024-03-02T07:08:27;99580.31;;;9.36;73.80
80482;BME280;69797;43.864;21.410;2024-03-02T07:10:54;99569.25;;;9.31;74.36
80482;BME280;69797;43.864;21.410;2024-03-02T07:13:20;99582.59;;;9.40;74.71
80482;BME280;69797;43.864;21.410;2024-03-02T07:15:47;99568.88;;;9.28;74.83
80482;BME280;69797;43.864;21.410;2024-03-02T07:18:46;99594.50;;;9.45;74.80
80482;BME280;69797;43.864;21.410;2024-03-02T07:21:18;99568.31;;;9.37;74.80
80482;BME280;69797;43.864;21.410;2024-03-02T07:23:45;99584.56;;;9.51;74.56
80482;BME280;69797;43.864;21.410;2024-03-02T07:26:12;99602.38;;;9.72;75.88
80482;BME280;69797;43.864;21.410;2024-03-02T07:28:42;99577.16;;;9.70;74.83
80482;BME280;69797;43.864;21.410;2024-03-02T07:31:10;99597.56;;;9.85;74.88
80482;BME280;69797;43.864;21.410;2024-03-02T07:33:37;99605.31;;;9.89;73.73
80482;BME280;69797;43.864;21.410;2024-03-02T07:36:04;99590.53;;;9.78;73.68
80482;BME280;69797;43.864;21.410;2024-03-02T07:38:31;99595.78;;;9.91;74.88
80482;BME280;69797;43.864;21.410;2024-03-02T07:41:00;99623.16;;;10.21;73.27
80482;BME280;69797;43.864;21.410;2024-03-02T07:43:27;99617.03;;;10.38;73.77
80482;BME280;69797;43.864;21.410;2024-03-02T07:45:54;99596.00;;;10.50;74.96
80482;BME280;69797;43.864;21.410;2024-03-02T07:48:22;99589.47;;;10.86;74.61
80482;BME280;69797;43.864;21.410;2024-03-02T07:50:49;99610.63;;;11.38;73.99
80482;BME280;69797;43.864;21.410;2024-03-02T07:53:16;99595.78;;;11.62;73.02
80482;BME280;69797;43.864;21.410;2024-03-02T07:55:42;99605.44;;;12.05;72.33
80482;BME280;69797;43.864;21.410;2024-03-02T07:58:09;99603.25;;;12.36;71.39
80482;BME280;69797;43.864;21.410;2024-03-02T08:00:39;99628.22;;;12.85;69.73
80482;BME280;69797;43.864;21.410;2024-03-02T08:03:07;99627.59;;;13.16;68.69
80482;BME280;69797;43.864;21.410;2024-03-02T08:05:38;99632.41;;;13.43;68.07
80482;BME280;69797;43.864;21.410;2024-03-02T08:08:05;99623.53;;;13.58;66.77
80482;BME280;69797;43.864;21.410;2024-03-02T08:10:32;99618.78;;;13.75;66.45
80482;BME280;69797;43.864;21.410;2024-03-02T08:13:00;99638.69;;;14.04;65.61
80482;BME280;69797;43.864;21.410;2024-03-02T08:15:27;99616.66;;;14.04;65.01
80482;BME280;69797;43.864;21.410;2024-03-02T08:17:54;99619.56;;;14.20;64.65
80482;BME280;69797;43.864;21.410;2024-03-02T08:20:21;99644.81;;;14.38;64.19
80482;BME280;69797;43.864;21.410;2024-03-02T08:22:47;99632.69;;;14.39;63.97
80482;BME280;69797;43.864;21.410;2024-03-02T08:25:14;99641.94;;;14.50;63.72
80482;BME280;69797;43.864;21.410;2024-03-02T08:27:42;99638.41;;;14.55;62.99
80482;BME280;69797;43.864;21.410;2024-03-02T08:30:10;99638.19;;;14.61;63.66
80482;BME280;69797;43.864;21.410;2024-03-02T08:32:37;99634.44;;;14.73;63.28
80482;BME280;69797;43.864;21.410;2024-03-02T08:35:04;99621.81;;;14.82;62.47
80482;BME280;69797;43.864;21.410;2024-03-02T08:37:31;99641.88;;;15.09;61.71
80482;BME280;69797;43.864;21.410;2024-03-02T08:39:58;99637.59;;;15.29;61.71
80482;BME280;69797;43.864;21.410;2024-03-02T08:42:25;99608.16;;;15.45;61.21
80482;BME280;69797;43.864;21.410;2024-03-02T08:44:52;99636.59;;;15.98;60.85
80482;BME280;69797;43.864;21.410;2024-03-02T08:47:19;99629.19;;;16.29;60.11
80482;BME280;69797;43.864;21.410;2024-03-02T08:49:46;99621.22;;;16.53;58.38
80482;BME280;69797;43.864;21.410;2024-03-02T08:52:12;99642.28;;;16.90;57.87
80482;BME280;69797;43.864;21.410;2024-03-02T08:54:39;99625.97;;;17.09;57.33
80482;BME280;69797;43.864;21.410;2024-03-02T08:57:06;99636.66;;;17.46;56.87
80482;BME280;69797;43.864;21.410;2024-03-02T08:59:34;99646.00;;;17.76;57.66
80482;BME280;69797;43.864;21.410;2024-03-02T09:02:00;99631.81;;;17.92;59.78
80482;BME280;69797;43.864;21.410;2024-03-02T09:04:28;99632.50;;;18.24;57.58
80482;BME280;69797;43.864;21.410;2024-03-02T09:07:00;99639.22;;;18.57;59.09
80482;BME280;69797;43.864;21.410;2024-03-02T09:09:27;99635.13;;;18.83;55.22
80482;BME280;69797;43.864;21.410;2024-03-02T09:11:54;99641.16;;;18.96;54.71
80482;BME280;69797;43.864;21.410;2024-03-02T09:14:24;99646.25;;;19.12;55.02
80482;BME280;69797;43.864;21.410;2024-03-02T09:16:51;99622.16;;;19.08;54.53
80482;BME280;69797;43.864;21.410;2024-03-02T09:19:18;99644.22;;;19.23;54.35
80482;BME280;69797;43.864;21.410;2024-03-02T09:21:45;99643.47;;;19.12;49.53
80482;BME280;69797;43.864;21.410;2024-03-02T09:24:12;99637.34;;;18.86;52.27
80482;BME280;69797;43.864;21.410;2024-03-02T09:26:43;99641.44;;;18.55;50.79
80482;BME280;69797;43.864;21.410;2024-03-02T09:29:10;99648.31;;;18.23;49.80
80482;BME280;69797;43.864;21.410;2024-03-02T09:31:41;99626.06;;;17.84;51.70
80482;BME280;69797;43.864;21.410;2024-03-02T09:34:08;99635.25;;;17.59;51.14
80482;BME280;69797;43.864;21.410;2024-03-02T09:36:34;99640.28;;;17.26;54.99
80482;BME280;69797;43.864;21.410;2024-03-02T09:39:01;99649.19;;;16.92;54.08
80482;BME280;69797;43.864;21.410;2024-03-02T09:41:30;99648.66;;;16.80;54.95
80482;BME280;69797;43.864;21.410;2024-03-02T09:44:00;99628.41;;;16.49;55.73
80482;BME280;69797;43.864;21.410;2024-03-02T09:46:27;99635.88;;;16.53;56.19
80482;BME280;69797;43.864;21.410;2024-03-02T09:48:54;99641.41;;;16.69;54.12
80482;BME280;69797;43.864;21.410;2024-03-02T09:51:21;99633.41;;;16.83;53.98
80482;BME280;69797;43.864;21.410;2024-03-02T09:53:48;99636.19;;;17.13;54.61
80482;BME280;69797;43.864;21.410;2024-03-02T09:56:15;99626.19;;;17.27;52.71
80482;BME280;69797;43.864;21.410;2024-03-02T09:58:43;99638.91;;;17.39;51.91
80482;BME280;69797;43.864;21.410;2024-03-02T10:01:10;99622.34;;;17.08;52.38
80482;BME280;69797;43.864;21.410;2024-03-02T10:03:37;99640.34;;;16.85;51.70
80482;BME280;69797;43.864;21.410;2024-03-02T10:06:27;99641.97;;;16.71;54.61
80482;BME280;69797;43.864;21.410;2024-03-02T10:08:55;99617.09;;;16.66;55.18
80482;BME280;69797;43.864;21.410;2024-03-02T10:11:29;99625.63;;;16.54;54.07
80482;BME280;69797;43.864;21.410;2024-03-02T10:14:06;99610.16;;;16.63;53.36
80482;BME280;69797;43.864;21.410;2024-03-02T10:16:41;99608.47;;;16.47;53.98
80482;BME280;69797;43.864;21.410;2024-03-02T10:19:21;99597.13;;;16.13;54.29
80482;BME280;69797;43.864;21.410;2024-03-02T10:21:52;99619.41;;;15.80;55.27
80482;BME280;69797;43.864;21.410;2024-03-02T10:24:21;99627.44;;;15.40;53.71
80482;BME280;69797;43.864;21.410;2024-03-02T10:26:49;99629.00;;;15.20;56.52
80482;BME280;69797;43.864;21.410;2024-03-02T10:29:17;99613.41;;;14.99;56.82
80482;BME280;69797;43.864;21.410;2024-03-02T10:31:45;99621.69;;;15.04;55.04
80482;BME280;69797;43.864;21.410;2024-03-02T10:34:14;99611.25;;;15.11;55.75
80482;BME280;69797;43.864;21.410;2024-03-02T10:36:44;99622.59;;;15.15;54.95
80482;BME280;69797;43.864;21.410;2024-03-02T10:39:13;99609.75;;;14.93;56.69
80482;BME280;69797;43.864;21.410;2024-03-02T10:41:41;99603.59;;;14.76;56.13
80482;BME280;69797;43.864;21.410;2024-03-02T10:44:09;99612.91;;;14.70;55.34
80482;BME280;69797;43.864;21.410;2024-03-02T10:46:37;99616.97;;;14.62;57.13
80482;BME280;69797;43.864;21.410;2024-03-02T10:49:05;99594.44;;;14.43;57.24
80482;BME280;69797;43.864;21.410;2024-03-02T10:51:34;99598.78;;;14.34;56.98
80482;BME280;69797;43.864;21.410;2024-03-02T10:54:04;99609.69;;;14.24;57.40
80482;BME280;69797;43.864;21.410;2024-03-02T10:56:40;99615.81;;;14.04;56.58
80482;BME280;69797;43.864;21.410;2024-03-02T11:01:56;99594.47;;;13.45;57.71
80482;BME280;69797;43.864;21.410;2024-03-02T11:04:31;99598.38;;;13.27;57.91
80482;BME280;69797;43.864;21.410;2024-03-02T11:06:59;99608.34;;;13.16;58.49
80482;BME280;69797;43.864;21.410;2024-03-02T11:09:28;99604.63;;;13.06;58.67
80482;BME280;69797;43.864;21.410;2024-03-02T11:14:30;99613.16;;;12.70;59.79
80482;BME280;69797;43.864;21.410;2024-03-02T11:17:00;99598.75;;;12.46;60.50
80482;BME280;69797;43.864;21.410;2024-03-02T11:19:28;99602.72;;;12.39;60.64
80482;BME280;69797;43.864;21.410;2024-03-02T11:21:56;99602.38;;;12.35;60.95
80482;BME280;69797;43.864;21.410;2024-03-02T11:26:51;99602.91;;;12.49;61.54
80482;BME280;69797;43.864;21.410;2024-03-02T11:32:20;99609.41;;;12.77;62.01
80482;BME280;69797;43.864;21.410;2024-03-02T11:34:49;99595.50;;;12.83;60.73
80482;BME280;69797;43.864;21.410;2024-03-02T11:37:17;99576.31;;;12.88;61.66
80482;BME280;69797;43.864;21.410;2024-03-02T11:39:45;99565.25;;;13.00;61.28
80482;BME280;69797;43.864;21.410;2024-03-02T11:42:13;99579.63;;;13.24;60.36
80482;BME280;69797;43.864;21.410;2024-03-02T11:44:45;99572.91;;;13.37;60.33
80482;BME280;69797;43.864;21.410;2024-03-02T11:47:14;99576.72;;;13.36;59.89
80482;BME280;69797;43.864;21.410;2024-03-02T11:52:13;99588.59;;;13.19;60.07
80482;BME280;69797;43.864;21.410;2024-03-02T11:54:43;99568.44;;;13.14;60.16
80482;BME280;69797;43.864;21.410;2024-03-02T11:57:19;99570.84;;;13.10;60.97
80482;BME280;69797;43.864;21.410;2024-03-02T11:59:47;99575.53;;;13.10;61.57
80482;BME280;69797;43.864;21.410;2024-03-02T12:02:18;99572.56;;;13.11;60.00
80482;BME280;69797;43.864;21.410;2024-03-02T12:04:46;99530.84;;;12.98;59.84
80482;BME280;69797;43.864;21.410;2024-03-02T12:07:19;99571.13;;;13.26;60.88
80482;BME280;69797;43.864;21.410;2024-03-02T12:10:02;99552.25;;;13.34;59.64
80482;BME280;69797;43.864;21.410;2024-03-02T12:12:30;99537.84;;;13.49;59.85
80482;BME280;69797;43.864;21.410;2024-03-02T12:14:57;99508.81;;;13.36;59.48
80482;BME280;69797;43.864;21.410;2024-03-02T12:17:26;99548.69;;;13.61;59.08
80482;BME280;69797;43.864;21.410;2024-03-02T12:19:53;99549.56;;;13.61;58.80
80482;BME280;69797;43.864;21.410;2024-03-02T12:22:21;99540.53;;;13.44;59.05
80482;BME280;69797;43.864;21.410;2024-03-02T12:24:48;99532.94;;;13.29;59.79
80482;BME280;69797;43.864;21.410;2024-03-02T12:27:15;99544.19;;;13.28;60.43
80482;BME280;69797;43.864;21.410;2024-03-02T12:29:43;99526.34;;;13.30;59.35
80482;BME280;69797;43.864;21.410;2024-03-02T12:32:09;99545.22;;;13.43;59.27
80482;BME280;69797;43.864;21.410;2024-03-02T12:34:38;99538.69;;;13.28;59.17
80482;BME280;69797;43.864;21.410;2024-03-02T12:37:05;99547.09;;;13.21;59.74
80482;BME280;69797;43.864;21.410;2024-03-02T12:39:32;99565.16;;;13.34;59.14
80482;BME280;69797;43.864;21.410;2024-03-02T12:41:59;99543.63;;;13.09;59.39
80482;BME280;69797;43.864;21.410;2024-03-02T12:44:26;99521.72;;;12.75;60.09
80482;BME280;69797;43.864;21.410;2024-03-02T12:46:53;99539.19;;;12.86;60.70
80482;BME280;69797;43.864;21.410;2024-03-02T12:49:24;99531.97;;;12.80;60.67
80482;BME280;69797;43.864;21.410;2024-03-02T12:51:51;99540.88;;;12.70;60.52
80482;BME280;69797;43.864;21.410;2024-03-02T12:54:22;99520.09;;;12.57;61.07
80482;BME280;69797;43.864;21.410;2024-03-02T12:56:49;99530.88;;;12.64;61.58
80482;BME280;69797;43.864;21.410;2024-03-02T12:59:20;99561.84;;;12.76;60.70
80482;BME280;69797;43.864;21.410;2024-03-02T13:01:55;99553.44;;;12.66;60.96
80482;BME280;69797;43.864;21.410;2024-03-02T13:04:24;99567.28;;;12.54;61.23
80482;BME280;69797;43.864;21.410;2024-03-02T13:06:52;99550.31;;;12.40;61.75
80482;BME280;69797;43.864;21.410;2024-03-02T13:09:20;99562.84;;;12.53;61.83
80482;BME280;69797;43.864;21.410;2024-03-02T13:11:47;99577.13;;;12.50;61.60